EPPO/POZ METAR and TAF weather

Enter ICAO airport designator
Station Type Date Time Source
EPPO METAR 2019/06/16 07:30 UTC NOAA

EPPO 160730Z 31007KT 280V340 9999 BKN020 21/15 Q1016


Station Type Date Time Source
EPPO Decoded METAR 2019/06/16 07:30 UTC NOAA

Poznan, Poland (EPPO) 52-25N 016-50E 92M
Jun 16, 2019 - 03:30 AM EDT / 2019.06.16 0730 UTC
Wind: from the NW (310 degrees) at 8 MPH (7 KT) (direction variable):0
Visibility: greater than 7 mile(s):0
Sky conditions: mostly cloudy
Temperature: 69 F (21 C)
Dew Point: 59 F (15 C)
Relative Humidity: 68%
Pressure (altimeter): 30.00 in. Hg (1016 hPa)
ob: EPPO 160730Z 31007KT 280V340 9999 BKN020 21/15 Q1016
cycle: 7

Station Type Date Time Source
EPPO TAF 2019/06/16 06:33 UTC NOAA

TAF EPPO 160530Z 1606/1706 30010KT CAVOK
BECMG 1618/1621 VRB02KT

Example: see airport list